7V5 weather

Brush Municipal Airport
Brush, Colorado, United States

Public forecast

Using degrees Fahrenheit for public forecast. Weather courtesy of forecast.io.

METAR (pilot weather report)

Report is more than 6 hours old.

Closest report is Fort Morgan Municipal Airport, 11.0 nm (20.4 km) WNW. Retrieved 2019/07/22 07:55 UTC (20 hours ago):

KFMM 220755Z AUTO 07009KT 10SM SCT022 BKN080 18/15 A3036 RMK AO2 T01770150

TAF (pilot weather forecast)

Forecast is more than 12 hours old.

Closest forecast is Denver International Airport, 55.7 nm (103.1 km) WSW. Retrieved 2019/07/22 00:39 UTC (1 day ago):

TAF KDEN 222336Z 2300/2406 VRB12G20KT P6SM VCTS SCT040CB OVC220 FM230015 07010G18KT P6SM SCT050 BKN070 BKN220 FM230400 15008KT P6SM SCT050 BKN100 FM230700 19011KT P6SM FEW100 SCT220 FM231300 28008KT P6SM SCT120 FM231700 09007KT P6SM BKN120 FM232100 05012KT P6SM SCT100 SCT200 FM240300 15007KT P6SM FEW100 FEW200